sensor_id;sensor_type;location;lat;lon;timestamp;P1;durP1;ratioP1;P2;durP2;ratioP2
52480;SDS011;38393;52.404;13.532;2023-03-31T00:01:24;7.73;;;3.70;;
52480;SDS011;38393;52.404;13.532;2023-03-31T00:03:50;7.20;;;3.77;;
52480;SDS011;38393;52.404;13.532;2023-03-31T00:06:16;8.43;;;3.53;;
52480;SDS011;38393;52.404;13.532;2023-03-31T00:08:42;10.00;;;3.50;;
52480;SDS011;38393;52.404;13.532;2023-03-31T00:11:08;8.83;;;3.50;;
52480;SDS011;38393;52.404;13.532;2023-03-31T00:13:34;8.83;;;3.57;;
52480;SDS011;38393;52.404;13.532;2023-03-31T00:16:00;7.97;;;3.70;;
52480;SDS011;38393;52.404;13.532;2023-03-31T00:18:28;7.80;;;3.27;;
52480;SDS011;38393;52.404;13.532;2023-03-31T00:20:58;7.73;;;3.27;;
52480;SDS011;38393;52.404;13.532;2023-03-31T00:23:53;6.57;;;3.23;;
52480;SDS011;38393;52.404;13.532;2023-03-31T00:26:25;4.53;;;2.97;;
52480;SDS011;38393;52.404;13.532;2023-03-31T00:28:52;9.37;;;3.47;;
52480;SDS011;38393;52.404;13.532;2023-03-31T00:31:17;7.23;;;2.83;;
52480;SDS011;38393;52.404;13.532;2023-03-31T00:33:43;7.63;;;3.10;;
52480;SDS011;38393;52.404;13.532;2023-03-31T00:36:09;7.47;;;3.20;;
52480;SDS011;38393;52.404;13.532;2023-03-31T00:38:35;7.33;;;3.03;;
52480;SDS011;38393;52.404;13.532;2023-03-31T00:41:00;5.13;;;2.67;;
52480;SDS011;38393;52.404;13.532;2023-03-31T00:43:34;7.20;;;2.90;;
52480;SDS011;38393;52.404;13.532;2023-03-31T00:46:04;5.97;;;2.93;;
52480;SDS011;38393;52.404;13.532;2023-03-31T00:48:54;6.97;;;2.60;;
52480;SDS011;38393;52.404;13.532;2023-03-31T00:51:22;9.97;;;2.97;;
52480;SDS011;38393;52.404;13.532;2023-03-31T00:53:53;5.23;;;2.30;;
52480;SDS011;38393;52.404;13.532;2023-03-31T00:56:23;6.40;;;2.60;;
52480;SDS011;38393;52.404;13.532;2023-03-31T00:58:50;4.67;;;2.50;;
52480;SDS011;38393;52.404;13.532;2023-03-31T01:01:18;7.60;;;2.77;;
52480;SDS011;38393;52.404;13.532;2023-03-31T01:03:48;8.53;;;2.53;;
52480;SDS011;38393;52.404;13.532;2023-03-31T01:06:14;5.97;;;2.70;;
52480;SDS011;38393;52.404;13.532;2023-03-31T01:08:43;5.93;;;2.33;;
52480;SDS011;38393;52.404;13.532;2023-03-31T01:11:14;7.80;;;2.60;;
52480;SDS011;38393;52.404;13.532;2023-03-31T01:13:43;7.17;;;2.83;;
52480;SDS011;38393;52.404;13.532;2023-03-31T01:16:10;6.47;;;2.53;;
52480;SDS011;38393;52.404;13.532;2023-03-31T01:18:36;6.57;;;2.60;;
52480;SDS011;38393;52.404;13.532;2023-03-31T01:21:17;6.70;;;2.43;;
52480;SDS011;38393;52.404;13.532;2023-03-31T01:24:22;4.90;;;2.57;;
52480;SDS011;38393;52.404;13.532;2023-03-31T01:33:24;6.40;;;2.20;;
52480;SDS011;38393;52.404;13.532;2023-03-31T01:36:36;7.70;;;2.37;;
52480;SDS011;38393;52.404;13.532;2023-03-31T01:42:35;8.37;;;2.37;;
52480;SDS011;38393;52.404;13.532;2023-03-31T01:45:25;7.77;;;2.40;;
52480;SDS011;38393;52.404;13.532;2023-03-31T01:48:37;5.20;;;2.30;;
52480;SDS011;38393;52.404;13.532;2023-03-31T01:51:15;7.10;;;2.30;;
52480;SDS011;38393;52.404;13.532;2023-03-31T01:54:08;9.57;;;2.43;;
52480;SDS011;38393;52.404;13.532;2023-03-31T01:57:12;4.60;;;1.90;;
52480;SDS011;38393;52.404;13.532;2023-03-31T01:59:58;6.50;;;2.13;;
52480;SDS011;38393;52.404;13.532;2023-03-31T02:02:28;4.50;;;2.33;;
52480;SDS011;38393;52.404;13.532;2023-03-31T02:04:58;4.40;;;1.90;;
52480;SDS011;38393;52.404;13.532;2023-03-31T02:07:33;9.30;;;1.90;;
52480;SDS011;38393;52.404;13.532;2023-03-31T02:10:35;8.00;;;2.10;;
52480;SDS011;38393;52.404;13.532;2023-03-31T02:13:03;8.23;;;1.90;;
52480;SDS011;38393;52.404;13.532;2023-03-31T02:15:32;4.33;;;1.90;;
52480;SDS011;38393;52.404;13.532;2023-03-31T02:18:02;4.20;;;1.90;;
52480;SDS011;38393;52.404;13.532;2023-03-31T02:20:34;5.20;;;2.33;;
52480;SDS011;38393;52.404;13.532;2023-03-31T02:23:06;8.77;;;2.10;;
52480;SDS011;38393;52.404;13.532;2023-03-31T02:25:35;5.97;;;2.10;;
52480;SDS011;38393;52.404;13.532;2023-03-31T02:28:08;7.40;;;2.37;;
52480;SDS011;38393;52.404;13.532;2023-03-31T02:30:40;3.97;;;2.00;;
52480;SDS011;38393;52.404;13.532;2023-03-31T02:33:12;4.20;;;1.97;;
52480;SDS011;38393;52.404;13.532;2023-03-31T02:35:39;5.33;;;2.20;;
52480;SDS011;38393;52.404;13.532;2023-03-31T02:38:05;5.20;;;2.17;;
52480;SDS011;38393;52.404;13.532;2023-03-31T02:40:30;3.77;;;1.87;;
52480;SDS011;38393;52.404;13.532;2023-03-31T02:42:56;5.03;;;2.53;;
52480;SDS011;38393;52.404;13.532;2023-03-31T02:45:42;4.10;;;1.97;;
52480;SDS011;38393;52.404;13.532;2023-03-31T02:48:13;4.23;;;1.90;;
52480;SDS011;38393;52.404;13.532;2023-03-31T02:50:52;4.30;;;1.90;;
52480;SDS011;38393;52.404;13.532;2023-03-31T02:53:37;3.90;;;1.90;;
52480;SDS011;38393;52.404;13.532;2023-03-31T02:56:18;8.57;;;3.10;;
52480;SDS011;38393;52.404;13.532;2023-03-31T03:02:01;3.90;;;1.90;;
52480;SDS011;38393;52.404;13.532;2023-03-31T03:10:02;9.23;;;2.47;;
52480;SDS011;38393;52.404;13.532;2023-03-31T03:12:41;4.80;;;2.20;;
52480;SDS011;38393;52.404;13.532;2023-03-31T03:15:16;6.43;;;1.93;;
52480;SDS011;38393;52.404;13.532;2023-03-31T03:17:48;5.37;;;2.07;;
52480;SDS011;38393;52.404;13.532;2023-03-31T03:20:15;5.80;;;2.17;;
52480;SDS011;38393;52.404;13.532;2023-03-31T03:22:43;3.87;;;1.90;;
52480;SDS011;38393;52.404;13.532;2023-03-31T03:25:10;4.70;;;2.33;;
52480;SDS011;38393;52.404;13.532;2023-03-31T03:27:37;4.20;;;1.80;;
52480;SDS011;38393;52.404;13.532;2023-03-31T03:30:04;5.70;;;1.87;;
52480;SDS011;38393;52.404;13.532;2023-03-31T03:32:32;8.67;;;2.20;;
52480;SDS011;38393;52.404;13.532;2023-03-31T03:34:57;5.70;;;1.93;;
52480;SDS011;38393;52.404;13.532;2023-03-31T03:37:27;9.27;;;1.87;;
52480;SDS011;38393;52.404;13.532;2023-03-31T03:39:53;6.30;;;2.03;;
52480;SDS011;38393;52.404;13.532;2023-03-31T03:42:19;5.77;;;2.03;;
52480;SDS011;38393;52.404;13.532;2023-03-31T03:44:44;7.97;;;3.03;;
52480;SDS011;38393;52.404;13.532;2023-03-31T03:47:10;6.07;;;2.20;;
52480;SDS011;38393;52.404;13.532;2023-03-31T03:49:35;10.37;;;2.20;;
52480;SDS011;38393;52.404;13.532;2023-03-31T03:52:01;3.43;;;1.80;;
52480;SDS011;38393;52.404;13.532;2023-03-31T03:54:27;4.57;;;2.00;;
52480;SDS011;38393;52.404;13.532;2023-03-31T03:56:53;6.27;;;1.90;;
52480;SDS011;38393;52.404;13.532;2023-03-31T03:59:18;6.10;;;2.20;;
52480;SDS011;38393;52.404;13.532;2023-03-31T04:01:44;4.40;;;2.10;;
52480;SDS011;38393;52.404;13.532;2023-03-31T04:04:09;6.00;;;2.10;;
52480;SDS011;38393;52.404;13.532;2023-03-31T04:06:34;5.17;;;2.30;;
52480;SDS011;38393;52.404;13.532;2023-03-31T04:09:01;6.90;;;1.93;;
52480;SDS011;38393;52.404;13.532;2023-03-31T04:11:27;6.10;;;2.10;;
52480;SDS011;38393;52.404;13.532;2023-03-31T04:13:53;4.83;;;2.30;;
52480;SDS011;38393;52.404;13.532;2023-03-31T04:16:18;8.07;;;2.33;;
52480;SDS011;38393;52.404;13.532;2023-03-31T04:18:44;5.77;;;2.27;;
52480;SDS011;38393;52.404;13.532;2023-03-31T04:21:11;6.43;;;2.30;;
52480;SDS011;38393;52.404;13.532;2023-03-31T04:23:39;8.43;;;2.23;;
52480;SDS011;38393;52.404;13.532;2023-03-31T04:26:12;7.50;;;2.30;;
52480;SDS011;38393;52.404;13.532;2023-03-31T04:28:39;7.93;;;2.63;;
52480;SDS011;38393;52.404;13.532;2023-03-31T04:31:10;5.20;;;2.40;;
52480;SDS011;38393;52.404;13.532;2023-03-31T04:33:42;5.37;;;2.10;;
52480;SDS011;38393;52.404;13.532;2023-03-31T04:36:10;5.83;;;2.30;;
52480;SDS011;38393;52.404;13.532;2023-03-31T04:38:41;6.17;;;2.23;;
52480;SDS011;38393;52.404;13.532;2023-03-31T04:41:11;7.50;;;2.77;;
52480;SDS011;38393;52.404;13.532;2023-03-31T04:43:36;7.80;;;2.20;;
52480;SDS011;38393;52.404;13.532;2023-03-31T04:46:02;8.53;;;2.30;;
52480;SDS011;38393;52.404;13.532;2023-03-31T04:48:27;7.47;;;2.57;;
52480;SDS011;38393;52.404;13.532;2023-03-31T04:50:53;4.53;;;2.07;;
52480;SDS011;38393;52.404;13.532;2023-03-31T04:53:18;10.30;;;2.83;;
52480;SDS011;38393;52.404;13.532;2023-03-31T04:55:44;7.60;;;2.50;;
52480;SDS011;38393;52.404;13.532;2023-03-31T04:58:09;7.63;;;2.40;;
52480;SDS011;38393;52.404;13.532;2023-03-31T05:00:35;9.03;;;2.87;;
52480;SDS011;38393;52.404;13.532;2023-03-31T05:03:00;7.43;;;2.57;;
52480;SDS011;38393;52.404;13.532;2023-03-31T05:05:27;6.63;;;2.43;;
52480;SDS011;38393;52.404;13.532;2023-03-31T05:07:52;8.60;;;2.60;;
52480;SDS011;38393;52.404;13.532;2023-03-31T05:10:18;5.33;;;2.60;;
52480;SDS011;38393;52.404;13.532;2023-03-31T05:12:43;6.27;;;2.53;;
52480;SDS011;38393;52.404;13.532;2023-03-31T05:15:09;6.70;;;2.47;;
52480;SDS011;38393;52.404;13.532;2023-03-31T05:17:35;8.63;;;2.70;;
52480;SDS011;38393;52.404;13.532;2023-03-31T05:20:00;8.90;;;2.80;;
52480;SDS011;38393;52.404;13.532;2023-03-31T05:22:31;9.37;;;2.70;;
52480;SDS011;38393;52.404;13.532;2023-03-31T05:24:59;5.30;;;2.60;;
52480;SDS011;38393;52.404;13.532;2023-03-31T05:27:24;9.13;;;2.70;;
52480;SDS011;38393;52.404;13.532;2023-03-31T05:29:50;8.40;;;3.53;;
52480;SDS011;38393;52.404;13.532;2023-03-31T05:32:15;8.37;;;2.40;;
52480;SDS011;38393;52.404;13.532;2023-03-31T05:34:41;7.13;;;2.60;;
52480;SDS011;38393;52.404;13.532;2023-03-31T05:37:07;8.80;;;2.77;;
52480;SDS011;38393;52.404;13.532;2023-03-31T05:39:32;8.70;;;2.47;;
52480;SDS011;38393;52.404;13.532;2023-03-31T05:41:58;6.30;;;2.33;;
52480;SDS011;38393;52.404;13.532;2023-03-31T05:44:24;8.17;;;2.80;;
52480;SDS011;38393;52.404;13.532;2023-03-31T05:46:51;7.30;;;2.83;;
52480;SDS011;38393;52.404;13.532;2023-03-31T05:49:17;9.47;;;3.03;;
52480;SDS011;38393;52.404;13.532;2023-03-31T05:51:43;7.50;;;2.93;;
52480;SDS011;38393;52.404;13.532;2023-03-31T05:54:08;9.13;;;2.97;;
52480;SDS011;38393;52.404;13.532;2023-03-31T05:56:34;5.47;;;2.80;;
52480;SDS011;38393;52.404;13.532;2023-03-31T05:59:00;7.33;;;2.83;;
52480;SDS011;38393;52.404;13.532;2023-03-31T06:01:25;5.80;;;2.50;;
52480;SDS011;38393;52.404;13.532;2023-03-31T06:03:51;7.27;;;2.67;;
52480;SDS011;38393;52.404;13.532;2023-03-31T06:06:17;7.50;;;2.70;;
52480;SDS011;38393;52.404;13.532;2023-03-31T06:08:43;6.93;;;2.87;;
52480;SDS011;38393;52.404;13.532;2023-03-31T06:11:11;8.47;;;3.07;;
52480;SDS011;38393;52.404;13.532;2023-03-31T06:13:43;7.30;;;2.50;;
52480;SDS011;38393;52.404;13.532;2023-03-31T06:16:10;8.30;;;2.97;;
52480;SDS011;38393;52.404;13.532;2023-03-31T06:18:37;7.43;;;2.90;;
52480;SDS011;38393;52.404;13.532;2023-03-31T06:21:03;6.90;;;2.90;;
52480;SDS011;38393;52.404;13.532;2023-03-31T06:23:29;8.63;;;3.10;;
52480;SDS011;38393;52.404;13.532;2023-03-31T06:25:57;6.23;;;2.73;;
52480;SDS011;38393;52.404;13.532;2023-03-31T06:28:27;9.53;;;3.17;;
52480;SDS011;38393;52.404;13.532;2023-03-31T06:31:00;7.80;;;2.60;;
52480;SDS011;38393;52.404;13.532;2023-03-31T06:33:30;8.67;;;2.60;;
52480;SDS011;38393;52.404;13.532;2023-03-31T06:35:56;6.13;;;2.60;;
52480;SDS011;38393;52.404;13.532;2023-03-31T06:38:23;7.73;;;2.60;;
52480;SDS011;38393;52.404;13.532;2023-03-31T06:40:49;4.93;;;2.67;;
52480;SDS011;38393;52.404;13.532;2023-03-31T06:43:15;9.40;;;3.30;;
52480;SDS011;38393;52.404;13.532;2023-03-31T06:45:40;6.97;;;3.20;;
52480;SDS011;38393;52.404;13.532;2023-03-31T06:48:06;12.00;;;3.10;;
52480;SDS011;38393;52.404;13.532;2023-03-31T06:50:31;8.73;;;3.10;;
52480;SDS011;38393;52.404;13.532;2023-03-31T06:52:56;6.63;;;2.60;;
52480;SDS011;38393;52.404;13.532;2023-03-31T06:55:22;10.73;;;4.57;;
52480;SDS011;38393;52.404;13.532;2023-03-31T06:57:48;9.23;;;3.07;;
52480;SDS011;38393;52.404;13.532;2023-03-31T07:00:13;6.77;;;2.70;;
52480;SDS011;38393;52.404;13.532;2023-03-31T07:02:39;6.93;;;2.23;;
52480;SDS011;38393;52.404;13.532;2023-03-31T07:05:05;8.13;;;2.40;;
52480;SDS011;38393;52.404;13.532;2023-03-31T07:07:31;7.67;;;2.50;;
52480;SDS011;38393;52.404;13.532;2023-03-31T07:09:57;6.27;;;2.10;;
52480;SDS011;38393;52.404;13.532;2023-03-31T07:12:22;5.80;;;2.10;;
52480;SDS011;38393;52.404;13.532;2023-03-31T07:14:48;6.50;;;2.20;;
52480;SDS011;38393;52.404;13.532;2023-03-31T07:17:14;7.53;;;2.20;;
52480;SDS011;38393;52.404;13.532;2023-03-31T07:19:39;7.13;;;2.20;;
52480;SDS011;38393;52.404;13.532;2023-03-31T07:22:06;7.53;;;2.20;;
52480;SDS011;38393;52.404;13.532;2023-03-31T07:24:32;7.70;;;2.70;;
52480;SDS011;38393;52.404;13.532;2023-03-31T07:26:57;6.93;;;2.33;;
52480;SDS011;38393;52.404;13.532;2023-03-31T07:29:23;6.57;;;1.97;;
52480;SDS011;38393;52.404;13.532;2023-03-31T07:31:49;6.50;;;1.93;;
52480;SDS011;38393;52.404;13.532;2023-03-31T07:34:15;4.67;;;1.83;;
52480;SDS011;38393;52.404;13.532;2023-03-31T07:36:41;4.20;;;1.80;;
52480;SDS011;38393;52.404;13.532;2023-03-31T07:39:06;6.93;;;1.90;;
52480;SDS011;38393;52.404;13.532;2023-03-31T07:41:32;6.77;;;2.00;;
52480;SDS011;38393;52.404;13.532;2023-03-31T07:43:57;4.83;;;1.63;;
52480;SDS011;38393;52.404;13.532;2023-03-31T07:46:24;6.67;;;2.23;;
52480;SDS011;38393;52.404;13.532;2023-03-31T07:48:52;5.90;;;1.90;;
52480;SDS011;38393;52.404;13.532;2023-03-31T07:51:19;4.70;;;2.00;;
52480;SDS011;38393;52.404;13.532;2023-03-31T07:53:48;5.93;;;1.80;;
52480;SDS011;38393;52.404;13.532;2023-03-31T07:56:16;11.87;;;2.30;;
52480;SDS011;38393;52.404;13.532;2023-03-31T07:58:42;7.27;;;1.80;;
52480;SDS011;38393;52.404;13.532;2023-03-31T08:01:08;4.13;;;1.80;;
52480;SDS011;38393;52.404;13.532;2023-03-31T08:03:33;4.13;;;1.50;;
52480;SDS011;38393;52.404;13.532;2023-03-31T08:05:59;5.80;;;1.70;;
52480;SDS011;38393;52.404;13.532;2023-03-31T08:08:25;8.17;;;2.10;;
52480;SDS011;38393;52.404;13.532;2023-03-31T08:10:51;5.33;;;1.70;;
52480;SDS011;38393;52.404;13.532;2023-03-31T08:13:17;5.13;;;1.53;;
52480;SDS011;38393;52.404;13.532;2023-03-31T08:15:42;4.70;;;1.90;;
52480;SDS011;38393;52.404;13.532;2023-03-31T08:18:08;5.67;;;1.47;;
52480;SDS011;38393;52.404;13.532;2023-03-31T08:20:33;6.10;;;1.73;;
52480;SDS011;38393;52.404;13.532;2023-03-31T08:22:59;5.20;;;1.90;;
52480;SDS011;38393;52.404;13.532;2023-03-31T08:25:24;5.47;;;1.60;;
52480;SDS011;38393;52.404;13.532;2023-03-31T08:27:50;6.67;;;2.07;;
52480;SDS011;38393;52.404;13.532;2023-03-31T08:30:17;7.47;;;1.70;;
52480;SDS011;38393;52.404;13.532;2023-03-31T08:32:44;6.20;;;1.77;;
52480;SDS011;38393;52.404;13.532;2023-03-31T08:35:10;5.97;;;2.00;;
52480;SDS011;38393;52.404;13.532;2023-03-31T08:37:36;5.57;;;2.00;;
52480;SDS011;38393;52.404;13.532;2023-03-31T08:40:06;6.37;;;1.80;;
52480;SDS011;38393;52.404;13.532;2023-03-31T08:42:45;7.87;;;2.03;;
52480;SDS011;38393;52.404;13.532;2023-03-31T08:45:17;5.47;;;2.00;;
52480;SDS011;38393;52.404;13.532;2023-03-31T08:47:51;7.83;;;2.20;;
52480;SDS011;38393;52.404;13.532;2023-03-31T08:50:20;7.80;;;2.23;;
52480;SDS011;38393;52.404;13.532;2023-03-31T08:52:51;10.70;;;1.80;;
52480;SDS011;38393;52.404;13.532;2023-03-31T08:55:24;7.43;;;1.90;;
52480;SDS011;38393;52.404;13.532;2023-03-31T08:58:01;5.47;;;1.87;;
52480;SDS011;38393;52.404;13.532;2023-03-31T09:00:37;5.90;;;2.07;;
52480;SDS011;38393;52.404;13.532;2023-03-31T09:03:13;5.70;;;1.90;;
52480;SDS011;38393;52.404;13.532;2023-03-31T09:06:06;4.70;;;1.50;;
52480;SDS011;38393;52.404;13.532;2023-03-31T09:08:40;7.33;;;1.90;;
52480;SDS011;38393;52.404;13.532;2023-03-31T09:11:10;6.10;;;1.67;;
52480;SDS011;38393;52.404;13.532;2023-03-31T09:14:02;6.07;;;1.93;;
52480;SDS011;38393;52.404;13.532;2023-03-31T09:19:25;10.33;;;2.00;;
52480;SDS011;38393;52.404;13.532;2023-03-31T09:22:03;8.60;;;2.10;;
52480;SDS011;38393;52.404;13.532;2023-03-31T09:24:35;4.80;;;1.93;;
52480;SDS011;38393;52.404;13.532;2023-03-31T09:27:11;6.53;;;2.03;;
52480;SDS011;38393;52.404;13.532;2023-03-31T09:29:57;6.83;;;2.00;;
52480;SDS011;38393;52.404;13.532;2023-03-31T09:32:46;5.27;;;1.87;;
52480;SDS011;38393;52.404;13.532;2023-03-31T09:35:22;4.80;;;2.03;;
52480;SDS011;38393;52.404;13.532;2023-03-31T09:37:49;6.07;;;1.90;;
52480;SDS011;38393;52.404;13.532;2023-03-31T09:40:20;6.07;;;1.63;;
52480;SDS011;38393;52.404;13.532;2023-03-31T09:42:51;6.97;;;1.70;;
52480;SDS011;38393;52.404;13.532;2023-03-31T09:45:21;10.30;;;2.03;;
52480;SDS011;38393;52.404;13.532;2023-03-31T09:47:49;4.87;;;1.80;;
52480;SDS011;38393;52.404;13.532;2023-03-31T09:50:16;4.57;;;1.70;;
52480;SDS011;38393;52.404;13.532;2023-03-31T09:52:43;6.73;;;2.10;;
52480;SDS011;38393;52.404;13.532;2023-03-31T09:55:59;6.77;;;2.40;;
52480;SDS011;38393;52.404;13.532;2023-03-31T09:58:17;4.97;;;2.23;;
52480;SDS011;38393;52.404;13.532;2023-03-31T10:01:03;6.20;;;2.73;;
52480;SDS011;38393;52.404;13.532;2023-03-31T10:03:31;5.70;;;2.87;;
52480;SDS011;38393;52.404;13.532;2023-03-31T10:06:01;6.00;;;2.73;;
52480;SDS011;38393;52.404;13.532;2023-03-31T10:08:37;7.20;;;2.90;;
52480;SDS011;38393;52.404;13.532;2023-03-31T10:11:11;5.73;;;3.10;;
52480;SDS011;38393;52.404;13.532;2023-03-31T10:13:48;4.90;;;2.93;;
52480;SDS011;38393;52.404;13.532;2023-03-31T10:16:33;5.50;;;2.80;;
52480;SDS011;38393;52.404;13.532;2023-03-31T10:19:17;8.83;;;2.83;;
52480;SDS011;38393;52.404;13.532;2023-03-31T10:21:47;3.90;;;2.30;;
52480;SDS011;38393;52.404;13.532;2023-03-31T10:24:18;5.30;;;2.37;;
52480;SDS011;38393;52.404;13.532;2023-03-31T10:26:47;4.67;;;2.47;;
52480;SDS011;38393;52.404;13.532;2023-03-31T10:29:18;5.57;;;2.70;;
52480;SDS011;38393;52.404;13.532;2023-03-31T10:31:54;5.27;;;2.40;;
52480;SDS011;38393;52.404;13.532;2023-03-31T10:34:20;4.80;;;2.20;;
52480;SDS011;38393;52.404;13.532;2023-03-31T10:36:48;4.07;;;2.10;;
52480;SDS011;38393;52.404;13.532;2023-03-31T10:39:16;7.30;;;2.50;;
52480;SDS011;38393;52.404;13.532;2023-03-31T10:41:42;4.90;;;2.10;;
52480;SDS011;38393;52.404;13.532;2023-03-31T10:47:02;7.90;;;2.00;;
52480;SDS011;38393;52.404;13.532;2023-03-31T10:49:49;5.80;;;1.97;;
52480;SDS011;38393;52.404;13.532;2023-03-31T10:52:21;4.43;;;2.10;;
52480;SDS011;38393;52.404;13.532;2023-03-31T10:54:50;4.50;;;2.30;;
52480;SDS011;38393;52.404;13.532;2023-03-31T10:57:23;5.57;;;2.10;;
52480;SDS011;38393;52.404;13.532;2023-03-31T11:00:17;5.30;;;2.17;;
52480;SDS011;38393;52.404;13.532;2023-03-31T11:08:12;4.17;;;1.60;;
52480;SDS011;38393;52.404;13.532;2023-03-31T11:10:50;3.53;;;1.50;;
52480;SDS011;38393;52.404;13.532;2023-03-31T11:13:32;6.27;;;1.70;;
52480;SDS011;38393;52.404;13.532;2023-03-31T11:16:15;10.33;;;4.03;;
52480;SDS011;38393;52.404;13.532;2023-03-31T11:18:58;5.20;;;1.97;;
52480;SDS011;38393;52.404;13.532;2023-03-31T11:22:02;5.70;;;1.80;;
52480;SDS011;38393;52.404;13.532;2023-03-31T11:25:02;5.27;;;1.67;;
52480;SDS011;38393;52.404;13.532;2023-03-31T11:30:27;4.37;;;2.10;;
52480;SDS011;38393;52.404;13.532;2023-03-31T11:33:09;4.63;;;2.00;;
52480;SDS011;38393;52.404;13.532;2023-03-31T11:36:01;5.17;;;2.80;;
52480;SDS011;38393;52.404;13.532;2023-03-31T11:38:46;6.20;;;2.50;;
52480;SDS011;38393;52.404;13.532;2023-03-31T11:44:00;10.67;;;5.27;;
52480;SDS011;38393;52.404;13.532;2023-03-31T11:46:47;4.07;;;2.07;;
52480;SDS011;38393;52.404;13.532;2023-03-31T11:49:23;4.00;;;2.00;;
52480;SDS011;38393;52.404;13.532;2023-03-31T11:51:59;3.63;;;2.20;;
52480;SDS011;38393;52.404;13.532;2023-03-31T11:54:35;5.90;;;2.57;;
52480;SDS011;38393;52.404;13.532;2023-03-31T11:57:24;6.30;;;3.47;;
52480;SDS011;38393;52.404;13.532;2023-03-31T11:59:58;9.87;;;5.97;;
52480;SDS011;38393;52.404;13.532;2023-03-31T12:02:35;5.53;;;2.80;;
52480;SDS011;38393;52.404;13.532;2023-03-31T12:05:07;7.43;;;2.90;;
52480;SDS011;38393;52.404;13.532;2023-03-31T12:07:47;6.87;;;3.80;;
52480;SDS011;38393;52.404;13.532;2023-03-31T12:10:33;6.53;;;2.77;;
52480;SDS011;38393;52.404;13.532;2023-03-31T12:13:28;6.37;;;2.87;;
52480;SDS011;38393;52.404;13.532;2023-03-31T12:16:10;7.50;;;2.90;;
52480;SDS011;38393;52.404;13.532;2023-03-31T12:18:42;5.43;;;2.60;;
52480;SDS011;38393;52.404;13.532;2023-03-31T12:21:20;6.30;;;2.60;;
52480;SDS011;38393;52.404;13.532;2023-03-31T12:23:47;4.83;;;2.50;;
52480;SDS011;38393;52.404;13.532;2023-03-31T12:26:16;6.33;;;2.63;;
52480;SDS011;38393;52.404;13.532;2023-03-31T12:29:01;8.87;;;2.70;;
52480;SDS011;38393;52.404;13.532;2023-03-31T12:31:31;4.80;;;2.40;;
52480;SDS011;38393;52.404;13.532;2023-03-31T12:34:03;2.40;;;1.20;;
52480;SDS011;38393;52.404;13.532;2023-03-31T12:39:13;2.33;;;1.00;;
52480;SDS011;38393;52.404;13.532;2023-03-31T12:41:56;1.67;;;0.87;;
52480;SDS011;38393;52.404;13.532;2023-03-31T12:47:59;2.17;;;1.00;;
52480;SDS011;38393;52.404;13.532;2023-03-31T12:59:34;3.93;;;2.33;;
52480;SDS011;38393;52.404;13.532;2023-03-31T13:04:39;6.67;;;3.40;;
52480;SDS011;38393;52.404;13.532;2023-03-31T13:09:50;7.57;;;3.80;;
52480;SDS011;38393;52.404;13.532;2023-03-31T13:12:38;8.50;;;4.80;;
52480;SDS011;38393;52.404;13.532;2023-03-31T13:15:04;5.70;;;3.83;;
52480;SDS011;38393;52.404;13.532;2023-03-31T13:17:36;6.80;;;3.70;;
52480;SDS011;38393;52.404;13.532;2023-03-31T13:23:13;9.67;;;6.20;;
52480;SDS011;38393;52.404;13.532;2023-03-31T13:25:49;4.23;;;2.47;;
52480;SDS011;38393;52.404;13.532;2023-03-31T13:31:05;8.80;;;3.60;;
52480;SDS011;38393;52.404;13.532;2023-03-31T13:39:06;6.77;;;4.57;;
52480;SDS011;38393;52.404;13.532;2023-03-31T13:41:42;10.97;;;6.40;;
52480;SDS011;38393;52.404;13.532;2023-03-31T13:44:28;9.43;;;5.13;;
52480;SDS011;38393;52.404;13.532;2023-03-31T13:56:19;7.20;;;3.57;;
52480;SDS011;38393;52.404;13.532;2023-03-31T14:05:03;7.37;;;3.67;;
52480;SDS011;38393;52.404;13.532;2023-03-31T14:07:48;6.80;;;3.37;;
52480;SDS011;38393;52.404;13.532;2023-03-31T14:10:31;5.77;;;3.33;;
52480;SDS011;38393;52.404;13.532;2023-03-31T14:13:03;7.60;;;3.57;;
52480;SDS011;38393;52.404;13.532;2023-03-31T14:15:49;9.87;;;4.40;;
52480;SDS011;38393;52.404;13.532;2023-03-31T14:18:20;9.83;;;5.67;;
52480;SDS011;38393;52.404;13.532;2023-03-31T14:23:48;8.10;;;3.20;;
52480;SDS011;38393;52.404;13.532;2023-03-31T14:29:30;4.90;;;2.50;;
52480;SDS011;38393;52.404;13.532;2023-03-31T14:32:31;6.23;;;3.33;;
52480;SDS011;38393;52.404;13.532;2023-03-31T14:37:41;5.17;;;2.60;;
52480;SDS011;38393;52.404;13.532;2023-03-31T14:40:09;5.23;;;2.90;;
52480;SDS011;38393;52.404;13.532;2023-03-31T14:42:40;4.03;;;3.10;;
52480;SDS011;38393;52.404;13.532;2023-03-31T14:45:22;6.10;;;2.80;;
52480;SDS011;38393;52.404;13.532;2023-03-31T14:48:32;3.57;;;2.60;;
52480;SDS011;38393;52.404;13.532;2023-03-31T14:50:44;4.40;;;2.93;;
52480;SDS011;38393;52.404;13.532;2023-03-31T14:53:14;6.40;;;3.40;;
52480;SDS011;38393;52.404;13.532;2023-03-31T14:55:46;9.57;;;3.50;;
52480;SDS011;38393;52.404;13.532;2023-03-31T14:58:13;9.30;;;3.50;;
52480;SDS011;38393;52.404;13.532;2023-03-31T15:00:49;6.57;;;3.70;;
52480;SDS011;38393;52.404;13.532;2023-03-31T15:03:16;4.57;;;3.00;;
52480;SDS011;38393;52.404;13.532;2023-03-31T15:05:41;5.90;;;4.40;;
52480;SDS011;38393;52.404;13.532;2023-03-31T15:08:13;6.00;;;4.00;;
52480;SDS011;38393;52.404;13.532;2023-03-31T15:10:42;6.27;;;3.40;;
52480;SDS011;38393;52.404;13.532;2023-03-31T15:13:11;5.10;;;3.57;;
52480;SDS011;38393;52.404;13.532;2023-03-31T15:15:42;6.23;;;3.90;;
52480;SDS011;38393;52.404;13.532;2023-03-31T15:18:13;7.87;;;4.03;;
52480;SDS011;38393;52.404;13.532;2023-03-31T15:20:40;6.30;;;4.00;;
52480;SDS011;38393;52.404;13.532;2023-03-31T15:23:23;5.07;;;4.07;;
52480;SDS011;38393;52.404;13.532;2023-03-31T15:25:53;5.97;;;3.30;;
52480;SDS011;38393;52.404;13.532;2023-03-31T15:28:28;7.47;;;4.73;;
52480;SDS011;38393;52.404;13.532;2023-03-31T15:31:01;13.40;;;8.40;;
52480;SDS011;38393;52.404;13.532;2023-03-31T15:33:31;16.50;;;9.67;;
52480;SDS011;38393;52.404;13.532;2023-03-31T15:36:00;13.30;;;6.83;;
52480;SDS011;38393;52.404;13.532;2023-03-31T15:38:27;7.07;;;4.13;;
52480;SDS011;38393;52.404;13.532;2023-03-31T15:40:55;6.53;;;4.53;;
52480;SDS011;38393;52.404;13.532;2023-03-31T15:43:26;7.03;;;3.23;;
52480;SDS011;38393;52.404;13.532;2023-03-31T15:46:18;5.20;;;3.73;;
52480;SDS011;38393;52.404;13.532;2023-03-31T15:49:19;5.43;;;4.03;;
52480;SDS011;38393;52.404;13.532;2023-03-31T15:51:47;5.97;;;3.30;;
52480;SDS011;38393;52.404;13.532;2023-03-31T15:54:27;5.90;;;3.10;;
52480;SDS011;38393;52.404;13.532;2023-03-31T15:57:01;6.87;;;3.10;;
52480;SDS011;38393;52.404;13.532;2023-03-31T15:59:30;5.30;;;2.90;;
52480;SDS011;38393;52.404;13.532;2023-03-31T16:02:08;5.80;;;3.07;;
52480;SDS011;38393;52.404;13.532;2023-03-31T16:04:37;5.63;;;3.17;;
52480;SDS011;38393;52.404;13.532;2023-03-31T16:07:04;15.30;;;10.57;;
52480;SDS011;38393;52.404;13.532;2023-03-31T16:09:52;3.20;;;2.90;;
52480;SDS011;38393;52.404;13.532;2023-03-31T16:12:23;4.50;;;3.30;;
52480;SDS011;38393;52.404;13.532;2023-03-31T16:17:31;5.40;;;3.33;;
52480;SDS011;38393;52.404;13.532;2023-03-31T16:20:05;6.90;;;3.10;;
52480;SDS011;38393;52.404;13.532;2023-03-31T16:22:36;8.07;;;3.90;;
52480;SDS011;38393;52.404;13.532;2023-03-31T16:25:11;3.87;;;3.00;;
52480;SDS011;38393;52.404;13.532;2023-03-31T16:27:40;5.70;;;3.07;;
52480;SDS011;38393;52.404;13.532;2023-03-31T16:30:12;6.07;;;3.10;;
52480;SDS011;38393;52.404;13.532;2023-03-31T16:33:01;6.27;;;3.03;;
52480;SDS011;38393;52.404;13.532;2023-03-31T16:35:31;5.10;;;3.20;;